HRGA4: Little River, Horatio, AR

                                SHEF ID:       HRGA4     Little River near Horatio, AR
STATION TYPE: Stream Gauge
Regulating: Stage = 21.50, Flow = 17539

PRECIP STAGE RIV-FLOW BAT-LOAD
in ft cfs volt
Ccp-Rev Ccp-Rev Ccp-Rev Ccp-Rev
(America/Chicago)
04/22 00:00 0.00 6.79 1449 12.54
04/22 01:00 0.00 6.75 1422 12.53
04/22 02:00 0.00 6.71 1396 12.50
04/22 03:00 0.00 6.67 1370 12.48
04/22 04:00 0.00 6.64 1351 12.45
04/22 05:00 0.00 6.64 1351 12.43
04/22 06:00 0.00 6.75 1422 12.41
04/22 07:00 0.03 7.01 1596 12.39
04/22 08:00 0.14 7.33 1817 12.38
04/22 09:00 0.04 7.57 1989 12.51
04/22 10:00 0.01 7.72 2099 12.86
04/22 11:00 0.00 7.80 2159 13.36
04/22 12:00 0.00 7.81 2166 13.39
04/22 13:00 0.00 7.78 2144 13.19
04/22 14:00 0.00 7.68 2070 13.05
04/22 15:00 0.00 7.60 2011 12.96
04/22 16:00 0.00 7.56 1982 12.93
04/22 17:00 0.00 7.47 1917 12.90
04/22 18:00 0.00 7.38 1853 12.89
04/22 19:00 0.00 7.29 1789 12.84
04/22 20:00 0.00 7.20 1726 12.83
04/22 21:00 0.00 7.12 1671 12.67
04/22 22:00 0.00 7.05 1623 12.61
04/22 23:00 0.00 6.96 1562 12.59
Data processed at Thu 23Apr2026 04:10 GMT

NOTICE: If you are parsing this page

Please convert to using our Data API. Starting early 2026 we will be migrating to: https://water.usace.army.mil with modern pages rendered in JavaScript. When this migration completes you will no longer be able to scrape this page! CWMSDataAPI (CDA)

Timeseries IDs (TSIDs)

TSIDs used from left to right in the data table
HORA.Precip-Inc.Total.1Hour.1Hour.Ccp-Rev
HORA.Stage.Inst.1Hour.0.Ccp-Rev
HORA.Flow.Inst.1Hour.0.Ccp-Rev
HORA.Volt-Battery Load.Inst.1Hour.0.Ccp-Rev

                            

All information presented herein is the property of the government of the United States of America and may be revised or deleted at any time without prior notice. Dissemination of this information without the expressed written consent of the Public Affairs Office, Tulsa District U.S. Army Corps of Engineers is strictly prohibited. These data are gathered electronically and, as presented, have NOT undergone any form of quality control. These data are NOT guaranteed to be valid or correct.